Time;durP1;ratioP1;P1;durP2;ratioP2;P2;SDS_P1;SDS_P2;PMS_P1;PMS_P2;Temp;Humidity;BMP_temperature;BMP_pressure;BME280_temperature;BME280_humidity;BME280_pressure;Samples;Min_cycle;Max_cycle;Signal;HPM_P1;HPM_P2
2023/08/23 00:02:25;;;;;;;1.20;0.90;;;25.10;59.40;;;;;;4990430;28;87154;-90
2023/08/23 00:04:51;;;;;;;0.70;0.70;;;25.10;59.20;;;;;;4987087;28;89786;-91
2023/08/23 00:07:16;;;;;;;1.80;1.00;;;25.10;59.50;;;;;;4987714;28;90746;-89
2023/08/23 00:09:42;;;;;;;1.35;0.93;;;25.10;59.40;;;;;;4988131;28;86986;-89
2023/08/23 00:12:08;;;;;;;1.67;1.02;;;25.10;59.60;;;;;;4992106;28;87271;-89
2023/08/23 00:14:34;;;;;;;1.20;0.95;;;25.10;59.80;;;;;;4990833;28;86923;-89
2023/08/23 00:16:59;;;;;;;1.48;0.90;;;25.10;59.60;;;;;;4989339;28;90336;-89
2023/08/23 00:19:25;;;;;;;1.60;1.17;;;25.10;59.70;;;;;;4991686;28;87721;-92
2023/08/23 00:21:51;;;;;;;1.27;0.85;;;25.10;59.70;;;;;;4993108;28;88078;-87
2023/08/23 00:24:19;;;;;;;1.00;0.70;;;25.10;59.80;;;;;;4991592;28;87272;-88
2023/08/23 00:26:45;;;;;;;1.20;0.77;;;25.10;59.60;;;;;;4994011;28;88494;-88
2023/08/23 00:29:11;;;;;;;2.22;0.90;;;25.10;59.90;;;;;;4991478;28;87928;-89
2023/08/23 00:31:36;;;;;;;1.52;0.88;;;25.10;59.70;;;;;;4990331;28;87662;-88
2023/08/23 00:34:02;;;;;;;2.05;0.80;;;25.00;59.60;;;;;;4991816;28;87685;-90
2023/08/23 00:36:28;;;;;;;1.30;0.85;;;25.10;59.60;;;;;;4992875;28;88286;-89
2023/08/23 00:38:56;;;;;;;1.05;0.90;;;25.10;59.60;;;;;;4992633;28;88145;-90
2023/08/23 00:41:23;;;;;;;3.97;1.00;;;25.10;59.40;;;;;;4992750;28;86908;-90
2023/08/23 00:43:49;;;;;;;3.22;1.00;;;25.00;59.50;;;;;;4989939;28;87772;-89
2023/08/23 00:46:15;;;;;;;0.88;0.73;;;25.10;59.60;;;;;;4989194;28;88679;-89
2023/08/23 00:48:43;;;;;;;1.88;0.77;;;25.00;59.50;;;;;;4990758;28;87537;-88
2023/08/23 00:51:09;;;;;;;1.73;0.98;;;25.00;59.60;;;;;;4991517;28;87321;-89
2023/08/23 00:53:37;;;;;;;1.90;0.90;;;25.10;59.50;;;;;;4989697;28;93395;-90
2023/08/23 00:56:04;;;;;;;1.27;0.70;;;25.10;59.50;;;;;;4991994;28;88522;-90
2023/08/23 00:58:29;;;;;;;2.05;1.05;;;25.10;59.60;;;;;;4990423;28;90446;-89
2023/08/23 01:00:57;;;;;;;1.42;0.90;;;25.00;59.50;;;;;;4990424;28;87471;-88
2023/08/23 01:03:23;;;;;;;1.00;0.85;;;25.00;59.70;;;;;;4990634;28;89345;-89
2023/08/23 01:06:30;;;;;;;1.70;1.08;;;25.00;59.70;;;;;;4992322;28;87340;-88
2023/08/23 01:09:07;;;;;;;1.70;1.00;;;25.00;59.60;;;;;;4980510;28;91896;-89
2023/08/23 01:11:41;;;;;;;0.90;0.90;;;25.00;59.50;;;;;;4990844;28;88330;-90
2023/08/23 01:14:25;;;;;;;1.17;0.90;;;25.00;59.50;;;;;;4991859;28;87312;-89
2023/08/23 01:16:51;;;;;;;1.30;1.20;;;25.00;59.60;;;;;;4990298;28;87260;-91
2023/08/23 01:19:32;;;;;;;1.00;0.90;;;25.00;59.50;;;;;;4992923;28;87742;-89
2023/08/23 01:21:59;;;;;;;1.40;0.93;;;25.00;59.50;;;;;;4989077;28;87332;-88
2023/08/23 01:24:25;;;;;;;1.38;1.15;;;25.00;59.60;;;;;;4992387;28;87694;-90
2023/08/23 01:26:50;;;;;;;1.77;0.80;;;25.00;59.60;;;;;;4989744;28;91212;-90
2023/08/23 01:29:16;;;;;;;1.48;0.90;;;25.00;59.60;;;;;;4989903;28;89824;-89
2023/08/23 01:31:45;;;;;;;1.00;0.90;;;25.00;59.30;;;;;;4990309;28;87543;-90
2023/08/23 01:34:27;;;;;;;1.23;0.93;;;24.90;59.40;;;;;;4989421;28;89120;-88
2023/08/23 01:36:54;;;;;;;1.50;1.00;;;24.90;59.50;;;;;;4991407;28;89232;-89
2023/08/23 01:39:24;;;;;;;1.50;0.95;;;25.00;59.60;;;;;;4988572;28;91355;-89
2023/08/23 01:41:50;;;;;;;2.22;0.95;;;24.90;59.50;;;;;;4991945;28;87709;-89
2023/08/23 01:44:16;;;;;;;1.48;0.80;;;24.90;59.50;;;;;;4988604;28;89383;-90
2023/08/23 01:46:42;;;;;;;2.25;0.90;;;24.90;59.40;;;;;;4989297;28;90400;-90
2023/08/23 01:49:08;;;;;;;1.10;1.00;;;24.90;59.60;;;;;;4990972;28;87909;-90
2023/08/23 01:51:33;;;;;;;1.23;0.88;;;24.90;59.50;;;;;;4989273;28;87510;-90
2023/08/23 01:53:59;;;;;;;1.17;0.80;;;24.90;59.50;;;;;;4990769;28;89660;-89
2023/08/23 01:56:25;;;;;;;1.10;0.70;;;24.90;59.50;;;;;;4990212;28;88683;-89
2023/08/23 01:58:50;;;;;;;1.08;0.80;;;24.90;59.40;;;;;;4989468;28;89346;-89
2023/08/23 02:01:16;;;;;;;1.30;0.95;;;24.90;59.50;;;;;;4988832;28;88915;-89
2023/08/23 02:03:42;;;;;;;1.10;0.80;;;24.90;59.40;;;;;;4990314;28;89821;-88
2023/08/23 02:06:07;;;;;;;1.00;0.90;;;24.90;59.50;;;;;;4989855;28;89281;-90
2023/08/23 02:08:35;;;;;;;1.55;0.90;;;24.90;59.60;;;;;;4988218;28;89128;-90
2023/08/23 02:11:01;;;;;;;1.83;0.98;;;24.90;59.80;;;;;;4987679;28;87745;-89
2023/08/23 02:13:27;;;;;;;1.70;0.90;;;24.90;59.70;;;;;;4989228;28;89556;-91
2023/08/23 02:15:52;;;;;;;1.60;0.80;;;24.90;59.60;;;;;;4989335;28;89230;-90
2023/08/23 02:18:19;;;;;;;2.60;0.85;;;24.90;59.50;;;;;;4990265;28;87602;-89
2023/08/23 02:20:45;;;;;;;1.50;0.98;;;24.90;59.60;;;;;;4990715;28;87028;-89
2023/08/23 02:23:10;;;;;;;2.38;0.93;;;24.90;59.70;;;;;;4988724;28;88141;-88
2023/08/23 02:25:36;;;;;;;1.40;0.93;;;24.90;59.70;;;;;;4989322;28;88561;-89
2023/08/23 02:28:02;;;;;;;1.92;0.90;;;24.90;59.60;;;;;;4990070;28;91722;-89
2023/08/23 02:30:28;;;;;;;1.38;0.90;;;24.80;59.40;;;;;;4990814;28;87978;-90
2023/08/23 02:32:53;;;;;;;1.23;0.60;;;24.90;59.50;;;;;;4989810;28;87616;-90
2023/08/23 02:35:19;;;;;;;0.70;0.70;;;24.90;59.40;;;;;;4990709;28;88662;-91
2023/08/23 02:37:45;;;;;;;0.90;0.75;;;24.80;59.50;;;;;;4991219;28;88048;-90
2023/08/23 02:40:10;;;;;;;2.30;1.00;;;24.90;59.50;;;;;;4990018;28;87822;-89
2023/08/23 02:42:36;;;;;;;1.30;0.80;;;24.80;59.40;;;;;;4991711;28;87122;-90
2023/08/23 02:45:02;;;;;;;2.75;0.88;;;24.80;59.40;;;;;;4988369;28;90348;-89
2023/08/23 02:47:28;;;;;;;0.60;0.60;;;24.80;59.40;;;;;;4989069;28;87672;-89
2023/08/23 02:49:53;;;;;;;1.73;0.93;;;24.80;59.20;;;;;;4989487;28;88495;-89
2023/08/23 02:52:19;;;;;;;1.60;1.05;;;24.80;59.30;;;;;;4987545;28;87565;-88
2023/08/23 02:54:44;;;;;;;1.80;0.90;;;24.80;59.10;;;;;;4989752;28;87883;-89
2023/08/23 02:57:10;;;;;;;0.75;0.70;;;24.80;59.10;;;;;;4987615;28;90280;-88
2023/08/23 02:59:36;;;;;;;1.13;0.80;;;24.80;59.10;;;;;;4990271;28;87643;-89
2023/08/23 03:02:01;;;;;;;1.98;1.05;;;24.70;59.00;;;;;;4988873;28;88118;-89
2023/08/23 03:04:27;;;;;;;0.93;0.77;;;24.80;59.10;;;;;;4990204;28;88630;-89
2023/08/23 03:06:52;;;;;;;2.25;0.90;;;24.80;59.20;;;;;;4989776;28;87778;-89
2023/08/23 03:09:18;;;;;;;1.10;0.85;;;24.80;59.30;;;;;;4990072;28;86848;-90
2023/08/23 03:11:44;;;;;;;1.25;0.95;;;24.70;59.40;;;;;;4989745;28;87788;-89
2023/08/23 03:14:09;;;;;;;0.80;0.80;;;24.80;60.20;;;;;;4988480;28;88901;-89
2023/08/23 03:16:35;;;;;;;0.73;0.73;;;24.80;59.50;;;;;;4988817;28;88897;-90
2023/08/23 03:19:00;;;;;;;1.20;1.00;;;24.80;59.60;;;;;;4990256;28;87440;-89
2023/08/23 03:21:26;;;;;;;1.80;1.10;;;24.80;59.50;;;;;;4989302;28;88122;-89
2023/08/23 03:23:51;;;;;;;2.03;1.10;;;24.80;59.40;;;;;;4989409;28;86961;-89
2023/08/23 03:26:17;;;;;;;1.42;1.00;;;24.80;59.20;;;;;;4990314;28;87298;-88
2023/08/23 03:28:43;;;;;;;0.90;0.77;;;24.70;59.40;;;;;;4988840;28;87600;-88
2023/08/23 03:31:08;;;;;;;3.55;0.93;;;24.70;59.60;;;;;;4987123;28;87780;-89
2023/08/23 03:33:34;;;;;;;1.25;0.73;;;24.70;59.50;;;;;;4990007;28;88577;-89
2023/08/23 03:36:00;;;;;;;1.38;0.95;;;24.70;59.50;;;;;;4987757;28;90319;-89
2023/08/23 03:38:25;;;;;;;1.15;0.70;;;24.70;59.30;;;;;;4989003;28;88710;-89
2023/08/23 03:40:51;;;;;;;1.08;0.85;;;24.70;59.30;;;;;;4987779;28;88402;-89
2023/08/23 03:43:18;;;;;;;0.90;0.85;;;24.70;59.20;;;;;;4989053;28;87878;-88
2023/08/23 03:45:50;;;;;;;1.08;0.90;;;24.70;59.40;;;;;;4991130;28;87690;-89
2023/08/23 03:48:18;;;;;;;1.35;0.90;;;24.70;59.30;;;;;;4993627;28;87237;-89
2023/08/23 03:50:44;;;;;;;1.70;1.00;;;24.70;59.50;;;;;;4989996;28;88518;-88
2023/08/23 03:53:10;;;;;;;2.30;1.02;;;24.70;59.20;;;;;;4990325;28;90469;-89
2023/08/23 03:55:36;;;;;;;1.25;0.90;;;24.70;59.30;;;;;;4991533;28;88005;-89
2023/08/23 03:58:03;;;;;;;1.10;0.90;;;24.70;59.20;;;;;;4988753;28;87340;-89
2023/08/23 04:00:29;;;;;;;1.05;0.82;;;24.70;59.30;;;;;;4990135;28;88771;-89
2023/08/23 04:02:54;;;;;;;1.35;0.90;;;24.70;59.30;;;;;;4990542;28;91858;-89
2023/08/23 04:05:20;;;;;;;2.92;0.98;;;24.70;59.20;;;;;;4992466;28;88185;-89
2023/08/23 04:07:46;;;;;;;1.17;1.02;;;24.70;59.10;;;;;;4992289;28;87335;-89
2023/08/23 04:10:11;;;;;;;1.50;0.98;;;24.70;59.20;;;;;;4990981;28;87562;-89
2023/08/23 04:12:37;;;;;;;1.85;0.98;;;24.70;59.10;;;;;;4992984;28;87617;-88
2023/08/23 04:15:04;;;;;;;0.90;0.70;;;24.70;59.00;;;;;;4990919;28;87758;-89
2023/08/23 04:17:29;;;;;;;1.23;0.80;;;24.70;59.00;;;;;;4991106;28;93179;-89
2023/08/23 04:19:55;;;;;;;2.13;0.77;;;24.70;58.90;;;;;;4990012;28;89475;-88
2023/08/23 04:22:20;;;;;;;1.40;0.90;;;24.70;59.10;;;;;;4989455;28;89732;-89
2023/08/23 04:24:46;;;;;;;0.88;0.88;;;24.70;59.00;;;;;;4990783;28;90151;-88
2023/08/23 04:27:12;;;;;;;2.78;0.95;;;24.70;58.90;;;;;;4990200;28;88695;-89
2023/08/23 04:29:37;;;;;;;1.35;1.00;;;24.70;59.10;;;;;;4992699;28;88095;-89
2023/08/23 04:32:09;;;;;;;1.30;1.00;;;24.60;59.00;;;;;;4990684;28;90763;-89
2023/08/23 04:34:34;;;;;;;1.48;1.10;;;24.70;59.10;;;;;;4991740;28;87740;-88
2023/08/23 04:37:00;;;;;;;2.55;0.90;;;24.60;59.00;;;;;;4991898;28;87457;-89
2023/08/23 04:39:26;;;;;;;2.63;1.20;;;24.60;59.20;;;;;;4993232;28;87507;-89
2023/08/23 04:41:51;;;;;;;2.80;1.05;;;24.60;58.90;;;;;;4992132;28;89812;-89
2023/08/23 04:44:17;;;;;;;1.25;0.80;;;24.60;59.20;;;;;;4992311;28;87525;-89
2023/08/23 04:46:44;;;;;;;2.33;0.90;;;24.60;59.40;;;;;;4990643;28;88266;-88
2023/08/23 04:49:10;;;;;;;1.58;1.00;;;24.60;59.20;;;;;;4990121;28;94518;-90
2023/08/23 04:51:35;;;;;;;1.27;0.90;;;24.60;59.10;;;;;;4990658;28;91006;-90
2023/08/23 04:54:01;;;;;;;1.38;0.85;;;24.60;59.10;;;;;;4991797;28;89100;-89
2023/08/23 04:56:27;;;;;;;2.22;0.88;;;24.60;59.20;;;;;;4987851;28;87838;-89
2023/08/23 04:58:53;;;;;;;1.65;0.82;;;24.60;58.90;;;;;;4990349;28;87586;-89
2023/08/23 05:01:18;;;;;;;1.23;0.70;;;24.60;58.80;;;;;;4990179;28;90954;-89
2023/08/23 05:03:44;;;;;;;1.55;1.00;;;24.60;58.90;;;;;;4988925;28;89326;-89
2023/08/23 05:06:10;;;;;;;1.38;1.08;;;24.60;58.80;;;;;;4992141;28;87132;-89
2023/08/23 05:08:35;;;;;;;2.13;1.05;;;24.50;58.70;;;;;;4992221;28;86888;-89
2023/08/23 05:11:01;;;;;;;1.70;1.02;;;24.60;58.50;;;;;;4990200;28;88955;-89
2023/08/23 05:13:27;;;;;;;1.33;1.02;;;24.60;58.50;;;;;;4989381;28;89646;-88
2023/08/23 05:15:57;;;;;;;1.35;1.05;;;24.50;58.60;;;;;;4987965;28;88478;-89
2023/08/23 05:18:23;;;;;;;1.42;0.80;;;24.60;58.80;;;;;;4989780;28;88335;-90
2023/08/23 05:20:57;;;;;;;1.45;1.02;;;24.60;58.70;;;;;;4992223;28;87888;-89
2023/08/23 05:23:24;;;;;;;3.38;0.95;;;24.60;58.80;;;;;;4989602;28;89248;-90
2023/08/23 05:25:51;;;;;;;1.10;1.00;;;24.60;58.80;;;;;;4991899;28;88226;-90
2023/08/23 05:28:18;;;;;;;2.30;0.98;;;24.60;58.90;;;;;;4990075;28;87237;-87
2023/08/23 05:30:44;;;;;;;0.82;0.80;;;24.70;59.20;;;;;;4989022;28;89692;-89
2023/08/23 05:33:10;;;;;;;0.88;0.73;;;24.70;59.40;;;;;;4991474;28;87794;-89
2023/08/23 05:35:35;;;;;;;69.03;13.27;;;24.70;59.50;;;;;;4992153;28;87385;-89
2023/08/23 05:38:01;;;;;;;75.45;15.07;;;24.70;58.30;;;;;;4992581;28;87003;-90
2023/08/23 05:40:27;;;;;;;47.28;9.40;;;24.60;57.20;;;;;;4992087;28;89103;-95
2023/08/23 05:43:04;;;;;;;30.05;7.50;;;24.70;57.40;;;;;;4994064;28;89670;-95
2023/08/23 05:45:30;;;;;;;21.23;4.90;;;24.70;56.70;;;;;;4994465;28;87307;-94
2023/08/23 05:47:57;;;;;;;18.73;4.68;;;24.70;55.90;;;;;;4995303;28;90002;-92
2023/08/23 05:50:23;;;;;;;9.55;2.72;;;24.60;55.40;;;;;;4994826;28;89429;-95
2023/08/23 05:52:49;;;;;;;11.20;3.10;;;24.50;55.30;;;;;;4995275;28;90162;-95
2023/08/23 05:55:14;;;;;;;12.00;2.67;;;24.50;55.30;;;;;;4995412;28;87853;-94
2023/08/23 05:57:40;;;;;;;7.70;2.35;;;24.40;54.70;;;;;;4994879;28;89293;-94
2023/08/23 06:00:07;;;;;;;6.82;2.20;;;24.30;55.10;;;;;;4996164;28;91795;-94
2023/08/23 06:02:33;;;;;;;7.75;2.53;;;24.20;55.20;;;;;;4994791;28;91269;-94
2023/08/23 06:04:59;;;;;;;6.32;2.13;;;24.10;55.40;;;;;;4995964;28;88728;-88
2023/08/23 06:07:25;;;;;;;9.43;1.95;;;24.10;55.60;;;;;;4980382;28;88564;-92
2023/08/23 06:09:50;;;;;;;4.97;1.92;;;24.20;55.80;;;;;;4993142;28;89724;-96
2023/08/23 06:12:16;;;;;;;6.20;2.03;;;24.30;55.90;;;;;;4994978;28;87081;-93
2023/08/23 06:14:42;;;;;;;6.05;2.13;;;24.30;55.80;;;;;;4995842;28;87446;-93
2023/08/23 06:17:08;;;;;;;6.68;1.95;;;24.30;55.70;;;;;;4990514;28;87656;-89
2023/08/23 06:19:33;;;;;;;6.43;2.13;;;24.30;55.90;;;;;;4988699;28;90448;-91
2023/08/23 06:21:59;;;;;;;5.57;1.90;;;24.40;55.90;;;;;;4991977;28;90347;-90
2023/08/23 06:24:25;;;;;;;4.15;1.80;;;24.40;56.10;;;;;;4992905;28;87836;-89
2023/08/23 06:26:50;;;;;;;4.20;1.80;;;24.40;55.90;;;;;;4992037;28;89769;-92
2023/08/23 06:29:17;;;;;;;4.68;2.28;;;24.30;56.00;;;;;;4990276;28;91457;-90
2023/08/23 06:31:43;;;;;;;8.15;2.13;;;24.40;56.20;;;;;;4991600;28;91487;-89
2023/08/23 06:34:08;;;;;;;5.25;2.35;;;24.40;56.20;;;;;;4992272;28;87796;-90
2023/08/23 06:36:34;;;;;;;6.38;2.13;;;24.40;56.20;;;;;;4991419;28;88409;-89
2023/08/23 06:39:00;;;;;;;9.73;2.28;;;24.40;56.30;;;;;;4996279;28;87122;-91
2023/08/23 06:41:26;;;;;;;4.82;2.00;;;24.40;56.50;;;;;;4978615;28;88930;-91
2023/08/23 06:44:01;;;;;;;5.95;2.00;;;24.40;56.60;;;;;;4980138;28;88084;-91
2023/08/23 06:46:28;;;;;;;7.65;2.20;;;24.40;57.80;;;;;;4995766;28;89705;-90
2023/08/23 06:48:54;;;;;;;4.20;2.10;;;24.40;57.20;;;;;;4997042;28;89626;-92
2023/08/23 06:51:21;;;;;;;5.20;2.08;;;24.40;57.30;;;;;;4997569;28;87081;-92
2023/08/23 06:53:49;;;;;;;8.88;2.28;;;24.50;57.30;;;;;;4992652;28;87954;-93
2023/08/23 06:56:15;;;;;;;4.43;2.23;;;24.40;57.20;;;;;;4995363;28;88218;-90
2023/08/23 06:58:40;;;;;;;5.65;2.50;;;24.50;57.20;;;;;;4993410;28;90835;-89
2023/08/23 07:01:08;;;;;;;7.82;2.78;;;24.40;57.30;;;;;;4997132;28;88858;-91
2023/08/23 07:03:35;;;;;;;7.32;2.78;;;24.50;57.90;;;;;;4999662;28;87440;-94
2023/08/23 07:06:02;;;;;;;4.97;2.20;;;24.50;58.30;;;;;;4997980;28;89178;-90
2023/08/23 07:08:28;;;;;;;7.43;2.50;;;24.40;58.50;;;;;;4997987;28;89953;-90
2023/08/23 07:10:53;;;;;;;7.43;2.67;;;24.50;58.90;;;;;;4992392;28;89513;-92
2023/08/23 07:13:19;;;;;;;9.13;2.72;;;24.60;58.70;;;;;;4984939;28;86952;-94
2023/08/23 07:15:45;;;;;;;15.38;2.60;;;24.60;58.70;;;;;;4988287;28;87821;-96
2023/08/23 07:18:11;;;;;;;8.60;2.40;;;24.70;58.80;;;;;;4994091;28;90424;-93
2023/08/23 07:20:36;;;;;;;7.65;2.50;;;24.70;58.60;;;;;;4992086;28;89949;-93
2023/08/23 07:23:03;;;;;;;7.82;2.05;;;24.70;58.80;;;;;;4990865;28;87131;-91
2023/08/23 07:25:29;;;;;;;6.15;2.35;;;24.90;58.70;;;;;;4989605;28;89669;-92
2023/08/23 07:28:04;;;;;;;4.53;1.70;;;25.00;58.40;;;;;;5001122;28;90858;-95
2023/08/23 07:30:30;;;;;;;13.02;2.85;;;25.00;58.30;;;;;;4995874;28;88998;-94
2023/08/23 07:33:02;;;;;;;10.68;2.67;;;25.10;58.10;;;;;;5000970;28;87478;-94
2023/08/23 07:35:27;;;;;;;6.22;2.10;;;25.20;57.90;;;;;;4982563;28;89716;-93
2023/08/23 07:37:53;;;;;;;9.38;2.22;;;25.20;57.70;;;;;;4997464;28;90128;-95
2023/08/23 07:40:21;;;;;;;5.50;1.77;;;25.20;58.00;;;;;;4971248;28;89589;-94
2023/08/23 07:42:47;;;;;;;5.83;2.63;;;25.30;58.20;;;;;;4999787;28;88034;-95
2023/08/23 07:45:13;;;;;;;12.40;2.03;;;25.20;58.00;;;;;;4996853;28;89570;-93
2023/08/23 07:47:39;;;;;;;6.85;2.40;;;25.30;58.30;;;;;;4998199;28;89665;-95
2023/08/23 07:50:06;;;;;;;4.75;1.70;;;25.30;58.10;;;;;;4973504;28;88943;-96
2023/08/23 07:52:49;;;;;;;17.65;4.63;;;25.40;58.00;;;;;;4975799;28;87693;-95
2023/08/23 07:55:15;;;;;;;58.80;17.35;;;25.40;57.90;;;;;;4956332;28;87520;-93
2023/08/23 07:57:40;;;;;;;48.10;14.38;;;25.40;58.20;;;;;;4968402;28;89134;-94
2023/08/23 08:00:09;;;;;;;50.53;13.60;;;25.40;58.60;;;;;;4977281;28;90429;-94
2023/08/23 08:02:35;;;;;;;45.60;12.55;;;25.50;58.90;;;;;;4995260;28;90116;-95
2023/08/23 08:05:00;;;;;;;35.53;11.05;;;25.50;58.80;;;;;;4993425;28;88719;-96
2023/08/23 08:07:30;;;;;;;30.60;9.68;;;25.50;59.00;;;;;;4995095;28;91245;-95
2023/08/23 08:09:58;;;;;;;39.55;9.98;;;25.50;59.10;;;;;;4988794;28;91007;-94
2023/08/23 08:12:24;;;;;;;37.17;9.37;;;25.50;59.20;;;;;;4995338;28;87111;-94
2023/08/23 08:15:05;;;;;;;21.50;7.30;;;25.50;59.20;;;;;;5012887;28;87714;-95
2023/08/23 08:17:32;;;;;;;34.03;8.05;;;25.50;59.10;;;;;;4995370;28;90709;-93
2023/08/23 08:19:58;;;;;;;29.33;6.47;;;25.50;58.90;;;;;;4978971;28;89294;-93
2023/08/23 08:22:24;;;;;;;18.48;6.13;;;25.50;58.90;;;;;;4993659;28;87250;-91
2023/08/23 08:24:52;;;;;;;18.83;6.30;;;25.50;59.00;;;;;;4970828;28;88142;-93
2023/08/23 08:27:17;;;;;;;15.63;5.68;;;25.60;59.10;;;;;;4980728;28;90858;-91
2023/08/23 08:30:36;;;;;;;;;;;;;;;;;;;;;
2023/08/23 08:33:02;;;;;;;21.13;5.15;;;25.60;59.10;;;;;;4957823;28;87990;-94
2023/08/23 08:35:31;;;;;;;14.55;4.68;;;25.60;59.00;;;;;;4981735;28;88866;-95
2023/08/23 08:38:06;;;;;;;12.77;4.40;;;25.70;59.10;;;;;;4993992;28;89952;-96
2023/08/23 08:49:52;;;;;;;10.45;3.63;;;25.70;59.00;;;;;;5195878;22;88086;-96
2023/08/23 08:52:25;;;;;;;8.50;3.30;;;25.60;59.10;;;;;;4946321;28;89914;-93
2023/08/23 08:54:52;;;;;;;11.75;3.30;;;25.50;58.70;;;;;;4944834;28;87442;-90
2023/08/23 08:57:19;;;;;;;6.70;3.08;;;25.40;58.50;;;;;;4942781;28;89095;-92
2023/08/23 08:59:46;;;;;;;6.45;2.67;;;25.50;58.30;;;;;;4944692;28;91336;-89
2023/08/23 09:02:15;;;;;;;10.43;2.95;;;25.50;58.10;;;;;;4931703;28;91093;-90
2023/08/23 09:04:47;;;;;;;4.22;2.63;;;25.60;58.20;;;;;;4930705;28;87042;-95
2023/08/23 09:07:14;;;;;;;11.27;2.65;;;25.60;58.00;;;;;;4922029;28;89746;-94
2023/08/23 09:09:45;;;;;;;4.57;2.20;;;25.60;58.00;;;;;;4926951;28;89204;-93
2023/08/23 09:12:11;;;;;;;7.63;2.65;;;25.60;58.00;;;;;;4945394;28;90099;-90
2023/08/23 09:14:39;;;;;;;4.45;2.17;;;25.60;58.10;;;;;;4947421;28;87844;-94
2023/08/23 09:17:33;;;;;;;8.70;2.72;;;25.60;57.90;;;;;;4931235;28;88077;-95
2023/08/23 09:19:59;;;;;;;8.02;2.90;;;25.50;58.00;;;;;;4917714;28;89679;-91
2023/08/23 09:22:24;;;;;;;5.55;2.20;;;25.50;57.60;;;;;;4936594;28;89851;-95
2023/08/23 09:24:53;;;;;;;6.78;2.40;;;25.50;57.90;;;;;;4942815;28;88288;-95
2023/08/23 09:27:20;;;;;;;7.68;3.05;;;25.50;57.50;;;;;;4934233;28;88086;-94
2023/08/23 09:29:46;;;;;;;10.10;2.95;;;25.40;57.00;;;;;;4936135;28;90400;-94
2023/08/23 09:32:12;;;;;;;4.97;1.80;;;25.40;57.50;;;;;;4942162;28;88951;-91
2023/08/23 09:34:37;;;;;;;6.80;1.98;;;25.50;57.70;;;;;;4921485;28;87409;-92
2023/08/23 09:37:07;;;;;;;5.70;2.42;;;25.60;57.60;;;;;;4933708;28;89191;-90
2023/08/23 09:39:33;;;;;;;6.32;2.38;;;25.60;57.70;;;;;;4931850;28;88389;-91
2023/08/23 09:42:04;;;;;;;8.68;2.15;;;25.70;57.80;;;;;;4934323;28;87403;-91
2023/08/23 09:44:34;;;;;;;6.57;2.10;;;25.60;57.60;;;;;;4935507;28;88462;-92
2023/08/23 09:47:00;;;;;;;3.97;2.00;;;25.70;57.80;;;;;;4930934;28;87687;-92
2023/08/23 09:49:31;;;;;;;7.75;2.25;;;25.80;57.80;;;;;;4915848;28;91345;-92
2023/08/23 09:52:00;;;;;;;5.07;2.10;;;25.80;57.70;;;;;;4921530;28;90190;-90
2023/08/23 09:54:34;;;;;;;5.50;2.15;;;25.80;57.80;;;;;;4933374;28;87754;-91
2023/08/23 09:57:00;;;;;;;4.65;1.88;;;25.90;58.20;;;;;;4935463;28;87690;-91
2023/08/23 09:59:26;;;;;;;4.88;2.05;;;25.90;58.50;;;;;;4936020;28;88963;-89
2023/08/23 10:01:52;;;;;;;7.38;2.00;;;25.90;58.50;;;;;;4931743;28;88041;-91
2023/08/23 10:04:18;;;;;;;7.50;1.92;;;25.90;58.60;;;;;;4916939;28;87504;-91
2023/08/23 10:06:45;;;;;;;5.05;1.85;;;25.90;58.80;;;;;;4935185;28;87199;-90
2023/08/23 10:09:12;;;;;;;8.05;2.45;;;25.90;58.90;;;;;;4936486;28;88196;-91
2023/08/23 10:11:39;;;;;;;5.13;1.98;;;25.90;58.90;;;;;;4935964;28;87565;-93
2023/08/23 10:14:07;;;;;;;10.82;2.55;;;26.00;59.10;;;;;;4932458;28;88385;-91
2023/08/23 10:16:34;;;;;;;3.93;1.93;;;26.00;59.00;;;;;;4934619;28;88226;-91
2023/08/23 10:19:00;;;;;;;6.32;1.90;;;26.00;59.00;;;;;;4934043;28;87274;-90
2023/08/23 10:21:27;;;;;;;2.95;1.98;;;26.10;59.00;;;;;;4932359;28;88306;-91
2023/08/23 10:23:53;;;;;;;3.38;1.98;;;26.00;59.10;;;;;;4931115;28;87953;-91
2023/08/23 10:26:21;;;;;;;3.90;2.08;;;26.10;59.40;;;;;;4934564;28;90239;-93
2023/08/23 10:28:55;;;;;;;5.53;1.75;;;26.10;59.10;;;;;;4940109;28;87775;-94
2023/08/23 10:31:25;;;;;;;5.53;2.10;;;26.10;59.00;;;;;;4943466;28;90138;-92
2023/08/23 10:33:57;;;;;;;5.72;2.58;;;26.20;58.70;;;;;;4938028;28;87536;-94
2023/08/23 10:36:25;;;;;;;3.60;1.83;;;26.20;58.50;;;;;;4934317;28;89638;-94
2023/08/23 10:38:56;;;;;;;7.47;2.10;;;26.20;58.40;;;;;;4939338;28;90424;-93
2023/08/23 10:41:25;;;;;;;7.22;2.30;;;26.30;58.40;;;;;;4932166;28;88491;-96
2023/08/23 10:43:52;;;;;;;9.68;2.10;;;26.30;58.40;;;;;;4948183;28;88168;-94
2023/08/23 10:46:19;;;;;;;14.60;2.38;;;26.30;58.70;;;;;;4934816;28;87551;-94
2023/08/23 10:48:46;;;;;;;11.68;2.50;;;26.30;58.60;;;;;;4922938;28;89350;-94
2023/08/23 10:51:16;;;;;;;9.70;2.38;;;26.30;58.60;;;;;;4937592;28;89642;-94
2023/08/23 10:53:45;;;;;;;11.95;2.22;;;26.20;58.50;;;;;;4932533;28;87439;-96
2023/08/23 10:56:12;;;;;;;5.65;1.90;;;26.20;59.30;;;;;;4940147;28;89535;-94
2023/08/23 10:58:37;;;;;;;9.18;1.95;;;26.20;59.40;;;;;;4923731;28;90752;-94
2023/08/23 11:01:04;;;;;;;9.85;2.28;;;26.30;59.50;;;;;;4927701;28;88596;-96
2023/08/23 11:03:34;;;;;;;9.07;1.80;;;26.30;59.50;;;;;;4945790;28;88989;-95
2023/08/23 11:06:00;;;;;;;7.13;2.42;;;26.40;59.50;;;;;;4930919;28;89474;-96
2023/08/23 11:08:26;;;;;;;10.05;2.15;;;26.30;59.20;;;;;;4941724;28;88330;-93
2023/08/23 11:10:52;;;;;;;10.80;2.83;;;26.30;59.50;;;;;;4942550;28;90123;-91
2023/08/23 11:13:17;;;;;;;12.30;2.17;;;26.30;59.80;;;;;;4922757;28;87365;-90
2023/08/23 11:15:43;;;;;;;8.07;2.22;;;26.30;59.80;;;;;;4925077;28;88770;-92
2023/08/23 11:18:11;;;;;;;8.85;2.20;;;26.30;59.70;;;;;;4938078;28;90244;-93
2023/08/23 11:20:37;;;;;;;7.20;2.20;;;26.30;59.60;;;;;;4939529;28;94660;-93
2023/08/23 11:23:03;;;;;;;8.82;2.25;;;26.30;59.70;;;;;;4939155;28;87481;-91
2023/08/23 11:25:29;;;;;;;3.40;2.10;;;26.30;59.30;;;;;;4941453;28;88290;-93
2023/08/23 11:27:54;;;;;;;7.40;2.50;;;26.30;59.40;;;;;;4923721;28;95356;-93
2023/08/23 11:30:20;;;;;;;7.07;2.13;;;26.30;59.40;;;;;;4938917;28;89587;-94
2023/08/23 11:32:46;;;;;;;3.20;1.83;;;26.30;59.30;;;;;;4925822;28;87514;-95
2023/08/23 11:35:12;;;;;;;5.07;1.80;;;26.40;59.20;;;;;;4923114;28;88433;-94
2023/08/23 11:37:38;;;;;;;7.85;1.75;;;26.40;59.00;;;;;;4939327;28;88669;-93
2023/08/23 11:40:10;;;;;;;10.65;2.28;;;26.40;58.80;;;;;;4939165;28;90131;-93
2023/08/23 11:42:37;;;;;;;5.28;2.17;;;26.40;58.60;;;;;;4940016;28;87480;-94
2023/08/23 11:45:06;;;;;;;4.13;1.70;;;26.40;58.60;;;;;;4939314;28;89665;-94
2023/08/23 11:47:34;;;;;;;4.40;1.88;;;26.40;58.50;;;;;;4939629;28;89918;-89
2023/08/23 11:50:07;;;;;;;5.85;2.30;;;26.40;58.70;;;;;;4937033;28;87747;-94
2023/08/23 11:52:32;;;;;;;5.80;2.47;;;26.40;59.10;;;;;;4938613;28;88344;-91
2023/08/23 11:55:01;;;;;;;7.57;1.75;;;26.40;59.00;;;;;;4924072;28;87833;-94
2023/08/23 11:57:26;;;;;;;7.22;2.60;;;26.40;59.20;;;;;;4925995;28;91312;-93
2023/08/23 11:59:52;;;;;;;15.70;2.80;;;26.40;59.40;;;;;;4939472;28;90230;-92
2023/08/23 12:02:18;;;;;;;7.05;2.05;;;26.40;59.40;;;;;;4923238;28;87450;-94
2023/08/23 12:04:46;;;;;;;8.80;2.20;;;26.50;59.40;;;;;;4939138;28;87403;-95
2023/08/23 12:07:13;;;;;;;11.55;2.40;;;26.50;59.70;;;;;;4943287;28;90347;-92
2023/08/23 12:09:39;;;;;;;18.25;2.65;;;26.40;59.90;;;;;;4947492;28;88480;-93
2023/08/23 12:12:06;;;;;;;7.95;2.10;;;26.40;60.30;;;;;;4951323;28;87309;-93
2023/08/23 12:14:31;;;;;;;8.77;1.95;;;26.40;60.30;;;;;;4931299;28;88712;-92
2023/08/23 12:16:57;;;;;;;6.65;2.00;;;26.40;60.70;;;;;;4941857;28;91205;-95
2023/08/23 12:19:25;;;;;;;13.02;2.63;;;26.40;60.70;;;;;;4945236;28;88651;-95
2023/08/23 12:21:51;;;;;;;10.10;2.60;;;26.40;60.90;;;;;;4941856;28;87313;-92
2023/08/23 12:24:19;;;;;;;11.98;2.63;;;26.40;60.70;;;;;;4961852;28;87337;-96
2023/08/23 12:35:34;;;;;;;7.80;2.75;;;26.50;60.80;;;;;;5664731;22;87935;-95
2023/08/23 12:38:06;;;;;;;14.27;2.75;;;26.50;61.00;;;;;;4931327;28;90251;-96
2023/08/23 12:40:33;;;;;;;6.68;2.20;;;26.30;60.50;;;;;;4930734;28;89264;-96
2023/08/23 12:47:10;;;;;;;6.95;2.30;;;26.30;60.90;;;;;;4895583;28;87345;-96
2023/08/23 12:49:37;;;;;;;7.10;1.95;;;26.30;61.20;;;;;;4958579;28;89415;-94
2023/08/23 12:52:21;;;;;;;10.88;2.40;;;26.30;61.90;;;;;;4970263;28;87460;-95
2023/08/23 12:54:46;;;;;;;6.22;2.20;;;26.40;62.10;;;;;;4965552;28;86855;-93
2023/08/23 12:57:29;;;;;;;8.10;2.03;;;26.30;61.80;;;;;;4955107;28;89348;-94
2023/08/23 12:59:54;;;;;;;4.18;1.88;;;26.40;61.90;;;;;;4965617;28;90610;-93
2023/08/23 13:02:20;;;;;;;6.63;2.00;;;26.40;61.60;;;;;;4961007;28;86877;-96
2023/08/23 13:04:55;;;;;;;4.00;1.95;;;26.40;61.80;;;;;;4950815;28;86677;-95
2023/08/23 13:07:22;;;;;;;8.85;2.08;;;26.30;62.10;;;;;;4960115;28;87181;-95
2023/08/23 13:21:12;;;;;;;5.75;1.83;;;26.60;62.00;;;;;;5792625;22;88650;-95